MEA429 OMDB-OLBA
Flight info
| Callsign | MEA429 |
|---|---|
| Flight time | N/A |
| Altitude | 40000 |
| Route | ANVIX7F/30R GIDIS DCT NABUN DCT RIBOT DCT SITER M440 KSA T503 BONIS DCT OTILA DCT SOKAN L768 FIRAS R655 KTN/N0398F260 R655 LEBOR |
| Aircraft | A339/H-SDFGHIRWY/LB1 |
Departure
| Time | N/A |
|---|---|
| Airport | Dubai International Airport (OMDB) |
Arrival
| Time | 2026-05-03 21:12 |
|---|---|
| Airport | Beirut Rafic Hariri International Airport (OLBA) |
| Time | Latitude | Longitude | Altitude | Speed | Heading |
|---|---|---|---|---|---|
| 2026-05-03 20:15 | 31.17222 | 39.82722 | 39955 ft | 442 kts | 304° |
| 2026-05-03 20:15 | 31.21800 | 39.77932 | 39951 ft | 442 kts | 304° |
| 2026-05-03 20:16 | 31.26380 | 39.73133 | 39959 ft | 442 kts | 305° |
| 2026-05-03 20:16 | 31.30954 | 39.68334 | 39962 ft | 442 kts | 305° |
| 2026-05-03 20:17 | 31.35525 | 39.63531 | 39948 ft | 442 kts | 305° |
| 2026-05-03 20:17 | 31.40088 | 39.58731 | 39947 ft | 441 kts | 305° |
| 2026-05-03 20:18 | 31.44770 | 39.54028 | 39952 ft | 450 kts | 310° |
| 2026-05-03 20:18 | 31.49805 | 39.49655 | 39955 ft | 451 kts | 310° |
| 2026-05-03 20:19 | 31.54826 | 39.45258 | 39958 ft | 450 kts | 310° |
| 2026-05-03 20:19 | 31.59846 | 39.40851 | 39961 ft | 451 kts | 310° |
| 2026-05-03 20:20 | 31.64831 | 39.36469 | 39959 ft | 450 kts | 310° |
| 2026-05-03 20:20 | 31.69843 | 39.32058 | 39963 ft | 450 kts | 310° |
| 2026-05-03 20:21 | 31.74855 | 39.27642 | 39966 ft | 450 kts | 310° |
| 2026-05-03 20:21 | 31.79858 | 39.23227 | 39967 ft | 450 kts | 310° |
| 2026-05-03 20:22 | 31.84863 | 39.18804 | 39964 ft | 450 kts | 310° |
| 2026-05-03 20:22 | 31.89858 | 39.14383 | 39965 ft | 449 kts | 310° |
| 2026-05-03 20:23 | 31.94854 | 39.09956 | 39963 ft | 449 kts | 310° |
| 2026-05-03 20:23 | 31.99846 | 39.05527 | 39965 ft | 450 kts | 310° |
| 2026-05-03 20:24 | 32.05233 | 39.01530 | 39961 ft | 467 kts | 319° |
| 2026-05-03 20:24 | 32.11084 | 38.98111 | 39948 ft | 469 kts | 320° |
| 2026-05-03 20:25 | 32.16917 | 38.94663 | 39957 ft | 469 kts | 320° |
| 2026-05-03 20:25 | 32.22757 | 38.91205 | 39956 ft | 470 kts | 320° |
| 2026-05-03 20:26 | 32.28612 | 38.87739 | 39957 ft | 471 kts | 320° |
| 2026-05-03 20:26 | 32.34470 | 38.84266 | 39956 ft | 472 kts | 320° |
| 2026-05-03 20:27 | 32.40344 | 38.80780 | 39956 ft | 472 kts | 320° |
| 2026-05-03 20:27 | 32.46179 | 38.77311 | 39955 ft | 473 kts | 320° |
| 2026-05-03 20:28 | 32.52057 | 38.73812 | 39957 ft | 473 kts | 320° |
| 2026-05-03 20:28 | 32.57939 | 38.70304 | 39957 ft | 473 kts | 321° |
| 2026-05-03 20:29 | 32.63826 | 38.66790 | 39961 ft | 474 kts | 321° |
| 2026-05-03 20:29 | 32.69709 | 38.63272 | 39963 ft | 473 kts | 321° |
| 2026-05-03 20:30 | 32.75593 | 38.59748 | 39954 ft | 473 kts | 321° |
| 2026-05-03 20:30 | 32.81475 | 38.56220 | 39954 ft | 474 kts | 321° |
| 2026-05-03 20:31 | 32.87364 | 38.52682 | 39952 ft | 474 kts | 321° |
| 2026-05-03 20:31 | 32.93248 | 38.49142 | 39958 ft | 474 kts | 321° |
| 2026-05-03 20:32 | 32.99141 | 38.45592 | 39953 ft | 475 kts | 321° |
| 2026-05-03 20:32 | 33.04034 | 38.42639 | 39952 ft | 475 kts | 321° |
| 2026-05-03 20:33 | 33.09928 | 38.39078 | 39953 ft | 475 kts | 321° |
| 2026-05-03 20:33 | 33.15824 | 38.35512 | 39953 ft | 475 kts | 321° |
| 2026-05-03 20:34 | 33.21722 | 38.31946 | 39951 ft | 475 kts | 321° |
| 2026-05-03 20:34 | 33.27612 | 38.28362 | 39949 ft | 475 kts | 321° |
| 2026-05-03 20:35 | 33.33496 | 38.24766 | 39946 ft | 475 kts | 321° |
| 2026-05-03 20:35 | 33.39379 | 38.21167 | 39947 ft | 475 kts | 321° |
| 2026-05-03 20:36 | 33.45262 | 38.17565 | 39945 ft | 475 kts | 321° |
| 2026-05-03 20:36 | 33.51160 | 38.13975 | 39942 ft | 476 kts | 322° |
| 2026-05-03 20:37 | 33.57064 | 38.10396 | 39937 ft | 476 kts | 322° |
| 2026-05-03 20:37 | 33.62966 | 38.06808 | 39929 ft | 476 kts | 322° |
| 2026-05-03 20:38 | 33.68873 | 38.03207 | 39929 ft | 476 kts | 322° |
| 2026-05-03 20:38 | 33.74786 | 37.99597 | 39921 ft | 477 kts | 322° |
| 2026-05-03 20:39 | 33.80646 | 37.96018 | 39533 ft | 474 kts | 322° |
| 2026-05-03 20:39 | 33.83566 | 37.94193 | 38970 ft | 469 kts | 318° |
| 2026-05-03 20:39 | 33.86193 | 37.91980 | 38275 ft | 453 kts | 308° |
| 2026-05-03 20:39 | 33.88393 | 37.89359 | 37463 ft | 439 kts | 299° |
| 2026-05-03 20:40 | 33.90166 | 37.86435 | 36638 ft | 427 kts | 291° |
| 2026-05-03 20:40 | 33.91722 | 37.83384 | 35781 ft | 429 kts | 291° |
| 2026-05-03 20:40 | 33.93302 | 37.80329 | 34959 ft | 431 kts | 291° |
| 2026-05-03 20:40 | 33.94898 | 37.77270 | 34149 ft | 432 kts | 292° |
| 2026-05-03 20:41 | 33.96502 | 37.74204 | 33227 ft | 433 kts | 292° |
| 2026-05-03 20:41 | 33.98110 | 37.71129 | 32162 ft | 435 kts | 292° |
| 2026-05-03 20:41 | 33.99731 | 37.68021 | 31066 ft | 439 kts | 292° |
| 2026-05-03 20:41 | 34.01355 | 37.64912 | 30317 ft | 436 kts | 292° |
| 2026-05-03 20:42 | 34.02966 | 37.61834 | 29552 ft | 433 kts | 292° |
| 2026-05-03 20:42 | 34.04562 | 37.58770 | 28796 ft | 428 kts | 293° |
| 2026-05-03 20:42 | 34.06133 | 37.55755 | 28073 ft | 423 kts | 293° |
| 2026-05-03 20:42 | 34.07689 | 37.52762 | 27314 ft | 419 kts | 293° |
| 2026-05-03 20:43 | 34.09232 | 37.49789 | 26604 ft | 416 kts | 293° |
| 2026-05-03 20:43 | 34.10757 | 37.46847 | 25914 ft | 412 kts | 294° |
| 2026-05-03 20:43 | 34.12269 | 37.43929 | 25231 ft | 409 kts | 294° |
| 2026-05-03 20:43 | 34.13757 | 37.41063 | 24960 ft | 395 kts | 294° |
| 2026-05-03 20:44 | 34.15191 | 37.38312 | 24798 ft | 379 kts | 294° |
| 2026-05-03 20:44 | 34.16548 | 37.35706 | 24589 ft | 365 kts | 293° |
| 2026-05-03 20:44 | 34.17882 | 37.33121 | 24138 ft | 360 kts | 293° |
| 2026-05-03 20:44 | 34.19194 | 37.30567 | 23960 ft | 360 kts | 293° |
| 2026-05-03 20:45 | 34.20414 | 37.27935 | 23916 ft | 357 kts | 287° |
| 2026-05-03 20:45 | 34.21255 | 37.25116 | 23907 ft | 348 kts | 277° |
| 2026-05-03 20:45 | 34.21684 | 37.22306 | 23907 ft | 341 kts | 269° |
| 2026-05-03 20:45 | 34.21878 | 37.19456 | 23908 ft | 341 kts | 268° |
| 2026-05-03 20:46 | 34.22087 | 37.16605 | 23905 ft | 341 kts | 269° |
| 2026-05-03 20:46 | 34.22308 | 37.13749 | 23908 ft | 341 kts | 269° |
| 2026-05-03 20:46 | 34.22533 | 37.10893 | 23904 ft | 344 kts | 269° |
| 2026-05-03 20:46 | 34.22761 | 37.07954 | 23903 ft | 358 kts | 269° |
| 2026-05-03 20:47 | 34.22995 | 37.04967 | 23901 ft | 355 kts | 269° |
| 2026-05-03 20:47 | 34.23230 | 37.02005 | 23906 ft | 354 kts | 269° |
| 2026-05-03 20:47 | 34.23463 | 36.99042 | 23902 ft | 354 kts | 269° |
| 2026-05-03 20:47 | 34.23694 | 36.96077 | 23900 ft | 354 kts | 269° |
| 2026-05-03 20:48 | 34.23924 | 36.93116 | 23904 ft | 354 kts | 269° |
| 2026-05-03 20:48 | 34.24152 | 36.90154 | 23899 ft | 354 kts | 269° |
| 2026-05-03 20:48 | 34.24379 | 36.87194 | 23894 ft | 354 kts | 269° |
| 2026-05-03 20:48 | 34.24606 | 36.84227 | 23897 ft | 355 kts | 269° |
| 2026-05-03 20:49 | 34.24833 | 36.81261 | 23896 ft | 354 kts | 269° |
| 2026-05-03 20:49 | 34.25057 | 36.78343 | 23897 ft | 344 kts | 269° |
| 2026-05-03 20:49 | 34.25277 | 36.75497 | 23898 ft | 339 kts | 269° |
| 2026-05-03 20:49 | 34.25491 | 36.72651 | 23896 ft | 341 kts | 269° |
| 2026-05-03 20:50 | 34.25703 | 36.69796 | 23902 ft | 340 kts | 269° |
| 2026-05-03 20:50 | 34.25914 | 36.66955 | 23901 ft | 340 kts | 269° |
| 2026-05-03 20:50 | 34.26126 | 36.64099 | 23903 ft | 342 kts | 269° |
| 2026-05-03 20:50 | 34.26339 | 36.61232 | 23909 ft | 343 kts | 269° |
| 2026-05-03 20:51 | 34.26554 | 36.58366 | 23891 ft | 341 kts | 269° |
| 2026-05-03 20:51 | 34.26733 | 36.55522 | 23608 ft | 338 kts | 267° |
| 2026-05-03 20:51 | 34.26839 | 36.52687 | 23063 ft | 337 kts | 266° |
| 2026-05-03 20:51 | 34.26929 | 36.49878 | 22482 ft | 333 kts | 266° |
| 2026-05-03 20:52 | 34.27020 | 36.47097 | 21810 ft | 329 kts | 266° |
| 2026-05-03 20:52 | 34.27111 | 36.44344 | 21165 ft | 327 kts | 266° |
| 2026-05-03 20:52 | 34.27208 | 36.41609 | 20565 ft | 324 kts | 266° |
| 2026-05-03 20:52 | 34.27307 | 36.38902 | 19967 ft | 321 kts | 266° |
| 2026-05-03 20:53 | 34.27408 | 36.36219 | 19378 ft | 318 kts | 266° |
| 2026-05-03 20:53 | 34.27507 | 36.33560 | 18788 ft | 315 kts | 266° |
| 2026-05-03 20:53 | 34.27605 | 36.30955 | 18221 ft | 313 kts | 266° |
| 2026-05-03 20:53 | 34.27701 | 36.28340 | 17582 ft | 310 kts | 266° |
| 2026-05-03 20:54 | 34.27791 | 36.25754 | 16955 ft | 305 kts | 266° |
| 2026-05-03 20:54 | 34.27974 | 36.20681 | 15839 ft | 298 kts | 266° |
| 2026-05-03 20:54 | 34.28067 | 36.18195 | 15270 ft | 295 kts | 266° |
| 2026-05-03 20:55 | 34.28157 | 36.15733 | 14707 ft | 291 kts | 266° |
| 2026-05-03 20:55 | 34.28243 | 36.13306 | 14172 ft | 288 kts | 266° |
| 2026-05-03 20:55 | 34.28327 | 36.10908 | 13613 ft | 285 kts | 266° |
| 2026-05-03 20:55 | 34.28424 | 36.08571 | 13218 ft | 273 kts | 266° |
| 2026-05-03 20:56 | 34.28505 | 36.06296 | 12677 ft | 269 kts | 266° |
| 2026-05-03 20:56 | 34.28577 | 36.04048 | 12189 ft | 264 kts | 266° |
| 2026-05-03 20:56 | 34.28654 | 36.01871 | 11779 ft | 256 kts | 266° |
| 2026-05-03 20:56 | 34.28723 | 35.99740 | 11337 ft | 251 kts | 266° |
| 2026-05-03 20:57 | 34.28802 | 35.97593 | 11197 ft | 259 kts | 267° |
| 2026-05-03 20:57 | 34.28899 | 35.95438 | 11160 ft | 255 kts | 268° |
| 2026-05-03 20:57 | 34.29008 | 35.93286 | 11158 ft | 258 kts | 268° |
| 2026-05-03 20:57 | 34.29111 | 35.91128 | 11157 ft | 257 kts | 267° |
| 2026-05-03 20:58 | 34.29208 | 35.88974 | 11127 ft | 255 kts | 267° |
| 2026-05-03 20:58 | 34.29309 | 35.86831 | 10800 ft | 253 kts | 268° |
| 2026-05-03 20:58 | 34.29405 | 35.84702 | 10370 ft | 254 kts | 267° |
| 2026-05-03 20:58 | 34.29496 | 35.82552 | 10210 ft | 257 kts | 267° |
| 2026-05-03 20:59 | 34.29590 | 35.80400 | 10159 ft | 252 kts | 267° |
| 2026-05-03 20:59 | 34.29685 | 35.78318 | 10160 ft | 247 kts | 267° |
| 2026-05-03 20:59 | 34.29776 | 35.76237 | 10171 ft | 248 kts | 267° |
| 2026-05-03 20:59 | 34.29866 | 35.74183 | 10101 ft | 247 kts | 267° |
| 2026-05-03 21:00 | 34.29956 | 35.72100 | 9809 ft | 243 kts | 267° |
| 2026-05-03 21:00 | 34.29942 | 35.70755 | 9350 ft | 242 kts | 259° |
| 2026-05-03 21:00 | 34.29353 | 35.68199 | 8496 ft | 236 kts | 242° |
| 2026-05-03 21:00 | 34.28583 | 35.66466 | 7893 ft | 234 kts | 239° |
| 2026-05-03 21:01 | 34.27815 | 35.64732 | 7280 ft | 233 kts | 239° |
| 2026-05-03 21:01 | 34.27066 | 35.62998 | 6715 ft | 232 kts | 240° |
| 2026-05-03 21:01 | 34.26331 | 35.61273 | 6089 ft | 231 kts | 240° |
| 2026-05-03 21:01 | 34.25598 | 35.59543 | 5469 ft | 230 kts | 241° |
| 2026-05-03 21:02 | 34.24876 | 35.57838 | 4868 ft | 228 kts | 241° |
| 2026-05-03 21:02 | 34.24157 | 35.56134 | 4284 ft | 226 kts | 241° |
| 2026-05-03 21:02 | 34.23440 | 35.54433 | 4055 ft | 232 kts | 241° |
| 2026-05-03 21:02 | 34.22721 | 35.52733 | 4002 ft | 220 kts | 241° |
| 2026-05-03 21:03 | 34.22052 | 35.51147 | 4001 ft | 206 kts | 240° |
| 2026-05-03 21:03 | 34.21399 | 35.49609 | 4001 ft | 205 kts | 240° |
| 2026-05-03 21:03 | 34.20745 | 35.48072 | 4006 ft | 207 kts | 240° |
| 2026-05-03 21:03 | 34.20090 | 35.46533 | 4006 ft | 206 kts | 240° |
| 2026-05-03 21:04 | 34.19433 | 35.44997 | 4006 ft | 206 kts | 241° |
| 2026-05-03 21:04 | 34.18780 | 35.43463 | 3953 ft | 205 kts | 241° |
| 2026-05-03 21:04 | 34.18127 | 35.41927 | 3671 ft | 205 kts | 241° |
| 2026-05-03 21:04 | 34.17452 | 35.40419 | 3260 ft | 203 kts | 235° |
| 2026-05-03 21:05 | 34.16399 | 35.39347 | 3055 ft | 197 kts | 208° |
| 2026-05-03 21:05 | 34.15017 | 35.39042 | 3007 ft | 215 kts | 181° |
| 2026-05-03 21:05 | 34.13547 | 35.39451 | 2998 ft | 214 kts | 170° |
| 2026-05-03 21:05 | 34.12150 | 35.39945 | 3022 ft | 208 kts | 169° |
| 2026-05-03 21:06 | 34.10767 | 35.40416 | 3014 ft | 201 kts | 171° |
| 2026-05-03 21:06 | 34.09445 | 35.40802 | 3021 ft | 196 kts | 172° |
| 2026-05-03 21:06 | 34.08104 | 35.41171 | 3012 ft | 198 kts | 172° |
| 2026-05-03 21:06 | 34.06773 | 35.41544 | 2979 ft | 195 kts | 172° |
| 2026-05-03 21:07 | 34.05474 | 35.41905 | 2809 ft | 194 kts | 172° |
| 2026-05-03 21:07 | 34.04152 | 35.42273 | 2508 ft | 197 kts | 173° |
| 2026-05-03 21:07 | 34.02823 | 35.42645 | 2345 ft | 193 kts | 173° |
| 2026-05-03 21:07 | 34.01524 | 35.43006 | 2129 ft | 193 kts | 173° |
| 2026-05-03 21:08 | 34.00227 | 35.43366 | 2014 ft | 187 kts | 172° |
| 2026-05-03 21:08 | 33.99005 | 35.43706 | 1992 ft | 173 kts | 172° |
| 2026-05-03 21:08 | 33.97876 | 35.44023 | 2000 ft | 162 kts | 172° |
| 2026-05-03 21:08 | 33.96806 | 35.44321 | 2005 ft | 152 kts | 172° |
| 2026-05-03 21:09 | 33.95799 | 35.44606 | 2009 ft | 150 kts | 174° |
| 2026-05-03 21:09 | 33.94775 | 35.44885 | 2008 ft | 150 kts | 174° |
| 2026-05-03 21:09 | 33.93751 | 35.45168 | 2009 ft | 153 kts | 173° |
| 2026-05-03 21:09 | 33.92699 | 35.45462 | 1824 ft | 154 kts | 173° |
| 2026-05-03 21:10 | 33.91709 | 35.45745 | 1629 ft | 138 kts | 173° |
| 2026-05-03 21:10 | 33.90817 | 35.45997 | 1384 ft | 128 kts | 174° |
| 2026-05-03 21:10 | 33.89919 | 35.46261 | 1154 ft | 142 kts | 172° |
| 2026-05-03 21:10 | 33.88913 | 35.46540 | 1034 ft | 145 kts | 173° |
| 2026-05-03 21:11 | 33.87974 | 35.46791 | 791 ft | 133 kts | 169° |
| 2026-05-03 21:11 | 33.87111 | 35.47025 | 639 ft | 128 kts | 171° |
| 2026-05-03 21:11 | 33.86218 | 35.47272 | 536 ft | 136 kts | 171° |
| 2026-05-03 21:11 | 33.85269 | 35.47549 | 370 ft | 142 kts | 170° |
| 2026-05-03 21:12 | 33.84340 | 35.47808 | 181 ft | 130 kts | 173° |
| 2026-05-03 21:12 | 33.83495 | 35.48028 | 72 ft | 119 kts | 170° |
| 2026-05-03 21:12 | 33.82801 | 35.48225 | 53 ft | 76 kts | 165° |
| 2026-05-03 21:12 | 33.82360 | 35.48349 | 56 ft | 49 kts | 162° |
| 2026-05-03 21:13 | 33.82097 | 35.48423 | 52 ft | 19 kts | 163° |
| 2026-05-03 21:13 | 33.81974 | 35.48490 | 56 ft | 20 kts | 148° |
| 2026-05-03 21:13 | 33.81865 | 35.48599 | 51 ft | 21 kts | 135° |
| 2026-05-03 21:13 | 33.81771 | 35.48720 | 52 ft | 13 kts | 122° |
| 2026-05-03 21:14 | 33.81737 | 35.48836 | 49 ft | 16 kts | 101° |
| 2026-05-03 21:14 | 33.81713 | 35.48951 | 55 ft | 10 kts | 104° |
| 2026-05-03 21:14 | 33.81736 | 35.49016 | 57 ft | 7 kts | 41° |
| 2026-05-03 21:14 | 33.81781 | 35.49063 | 56 ft | 10 kts | 40° |
| 2026-05-03 21:15 | 33.81842 | 35.49116 | 58 ft | 12 kts | 34° |
| 2026-05-03 21:15 | 33.81920 | 35.49181 | 50 ft | 15 kts | 35° |
| 2026-05-03 21:15 | 33.82013 | 35.49260 | 54 ft | 18 kts | 35° |
| 2026-05-03 21:15 | 33.82121 | 35.49351 | 56 ft | 20 kts | 36° |
| 2026-05-03 21:16 | 33.82223 | 35.49440 | 56 ft | 19 kts | 36° |
| 2026-05-03 21:16 | 33.82321 | 35.49519 | 56 ft | 6 kts | 34° |
| 2026-05-03 21:16 | 33.82329 | 35.49525 | 56 ft | 3 kts | 34° |
| 2026-05-03 21:16 | 33.82357 | 35.49549 | 54 ft | 7 kts | 35° |
| 2026-05-03 21:17 | 33.82399 | 35.49577 | 54 ft | 3 kts | 16° |
| 2026-05-03 21:17 | 33.82414 | 35.49575 | 56 ft | 4 kts | 353° |
| 2026-05-03 21:17 | 33.82434 | 35.49564 | 55 ft | 1 kts | 335° |
| 2026-05-03 21:17 | 33.82453 | 35.49552 | 53 ft | 4 kts | 331° |
| 2026-05-03 21:18 | 33.82473 | 35.49538 | 54 ft | 4 kts | 330° |
| 2026-05-03 21:18 | 33.82481 | 35.49532 | 54 ft | 0 kts | 328° |